Time;durP1;ratioP1;P1;durP2;ratioP2;P2;SDS_P1;SDS_P2;PMS_P1;PMS_P2;Temp;Humidity;BMP_temperature;BMP_pressure;BME280_temperature;BME280_humidity;BME280_pressure;Samples;Min_cycle;Max_cycle;Signal;HPM_P1;HPM_P2
2023/06/24 00:00:51;;;;;;;10.27;4.72;;;;;;;25.12;62.17;98677.88;2043964;28;20146;-87
2023/06/24 00:01:55;;;;;;;6.43;3.50;;;;;;;25.37;61.02;98679.41;2047301;28;20098;-86
2023/06/24 00:02:57;;;;;;;7.78;3.47;;;;;;;25.52;60.58;98682.38;2046730;28;20078;-86
2023/06/24 00:03:58;;;;;;;6.47;3.20;;;;;;;25.69;59.91;98690.53;2044521;28;20046;-86
2023/06/24 00:05:00;;;;;;;7.28;3.05;;;;;;;25.79;59.63;98687.94;2044716;28;20585;-86
2023/06/24 00:06:03;;;;;;;15.05;3.78;;;;;;;25.96;59.23;98698.81;2042932;28;20066;-86
2023/06/24 00:07:03;;;;;;;5.10;2.97;;;;;;;26.02;58.78;98707.84;2042783;28;20371;-86
2023/06/24 00:08:06;;;;;;;8.77;3.13;;;;;;;26.06;58.57;98706.28;2045354;28;20666;-85
2023/06/24 00:09:07;;;;;;;9.15;3.45;;;;;;;26.14;58.40;98710.47;2044884;28;20558;-87
2023/06/24 00:10:09;;;;;;;8.77;3.13;;;;;;;26.16;58.24;98701.00;2045020;28;20051;-86
2023/06/24 00:11:10;;;;;;;6.07;2.83;;;;;;;26.16;58.18;98687.41;2045976;28;20079;-87
2023/06/24 00:12:19;;;;;;;8.57;2.78;;;;;;;26.18;58.09;98679.00;2046135;28;20070;-86
2023/06/24 00:13:19;;;;;;;8.73;3.42;;;;;;;26.17;58.25;98680.06;2044530;28;20506;-87
2023/06/24 00:14:23;;;;;;;10.82;3.17;;;;;;;26.08;58.47;98671.53;2045373;28;20043;-87
2023/06/24 00:15:24;;;;;;;11.40;3.60;;;;;;;26.00;58.66;98672.78;2044422;28;20047;-87
2023/06/24 00:16:27;;;;;;;8.25;3.65;;;;;;;26.03;58.63;98683.16;2044786;28;20098;-87
2023/06/24 00:17:29;;;;;;;8.63;2.70;;;;;;;26.06;58.76;98687.25;2041129;28;20093;-86
2023/06/24 00:18:31;;;;;;;7.20;3.58;;;;;;;26.06;58.76;98670.97;2044959;28;20141;-87
2023/06/24 00:19:32;;;;;;;12.63;4.10;;;;;;;26.14;58.26;98684.13;2044154;28;20038;-87
2023/06/24 00:20:33;;;;;;;7.95;3.72;;;;;;;26.18;57.93;98685.25;2041547;28;20065;-88
2023/06/24 00:21:37;;;;;;;8.88;3.28;;;;;;;26.21;57.97;98679.28;2042024;28;20144;-86
2023/06/24 00:22:43;;;;;;;7.25;3.17;;;;;;;26.19;58.28;98683.38;2046236;28;20051;-87
2023/06/24 00:23:44;;;;;;;8.73;4.18;;;;;;;26.10;58.60;98676.72;2041370;28;20047;-86
2023/06/24 00:24:46;;;;;;;10.80;3.33;;;;;;;26.05;58.63;98672.88;2045337;28;20569;-85
2023/06/24 00:25:47;;;;;;;6.57;3.08;;;;;;;26.11;58.72;98675.66;2044233;28;20047;-86
2023/06/24 00:26:49;;;;;;;8.80;2.80;;;;;;;26.14;58.55;98675.97;2046700;28;20209;-86
2023/06/24 00:27:49;;;;;;;8.38;3.97;;;;;;;26.17;58.25;98675.44;2046376;28;20212;-85
2023/06/24 00:28:51;;;;;;;8.35;3.05;;;;;;;26.17;58.23;98672.75;2047493;28;20582;-85
2023/06/24 00:29:52;;;;;;;8.35;3.67;;;;;;;26.14;58.18;98664.28;2041285;28;20062;-86
2023/06/24 00:30:54;;;;;;;8.73;3.50;;;;;;;26.21;58.08;98668.41;2044294;28;20391;-85
2023/06/24 00:31:55;;;;;;;12.30;4.32;;;;;;;26.27;58.12;98670.16;2044855;28;20049;-86
2023/06/24 00:32:58;;;;;;;8.73;3.15;;;;;;;26.27;57.78;98661.16;2044079;28;20466;-85
2023/06/24 00:33:59;;;;;;;6.53;4.15;;;;;;;26.29;57.79;98659.00;2043490;28;20126;-86
2023/06/24 00:35:01;;;;;;;7.63;3.17;;;;;;;26.32;57.96;98660.41;2046749;28;20051;-86
2023/06/24 00:36:01;;;;;;;12.93;3.35;;;;;;;26.30;57.68;98660.66;2042189;28;20066;-87
2023/06/24 00:37:03;;;;;;;4.15;2.80;;;;;;;26.28;57.42;98660.09;2043863;28;20047;-86
2023/06/24 00:38:04;;;;;;;14.93;4.18;;;;;;;26.30;57.83;98661.50;2042535;28;20573;-85
2023/06/24 00:39:06;;;;;;;6.63;2.97;;;;;;;26.28;57.90;98657.38;2045934;28;20142;-85
2023/06/24 00:40:11;;;;;;;10.77;3.47;;;;;;;26.32;57.79;98658.50;2044037;28;20698;-85
2023/06/24 00:41:13;;;;;;;8.25;3.55;;;;;;;26.30;57.87;98655.22;2045172;28;20074;-86
2023/06/24 00:42:13;;;;;;;8.02;3.38;;;;;;;26.28;57.65;98649.22;2043894;28;20505;-86
2023/06/24 00:43:15;;;;;;;9.13;2.92;;;;;;;26.30;57.79;98655.22;2045456;28;20055;-86
2023/06/24 00:44:16;;;;;;;6.40;3.13;;;;;;;26.26;57.70;98649.47;2039807;28;20757;-86
2023/06/24 00:45:18;;;;;;;7.35;3.08;;;;;;;26.29;57.73;98648.13;2047195;28;20044;-86
2023/06/24 00:46:19;;;;;;;8.52;3.33;;;;;;;26.28;57.77;98654.66;2045502;28;20150;-86
2023/06/24 00:47:21;;;;;;;9.57;3.30;;;;;;;26.28;57.51;98651.94;2044792;28;20052;-85
2023/06/24 00:48:24;;;;;;;12.88;3.80;;;;;;;26.28;57.67;98651.94;2043692;28;20067;-86
2023/06/24 00:49:26;;;;;;;14.23;4.38;;;;;;;26.28;57.30;98650.03;2045429;28;20046;-86
2023/06/24 00:50:27;;;;;;;9.57;4.32;;;;;;;26.36;57.30;98647.97;2045370;28;20130;-86
2023/06/24 00:51:30;;;;;;;9.60;3.35;;;;;;;26.34;57.33;98653.63;2043975;28;20051;-86
2023/06/24 00:52:31;;;;;;;12.38;3.30;;;;;;;26.36;57.29;98653.41;2045487;28;20082;-86
2023/06/24 00:53:33;;;;;;;9.65;3.67;;;;;;;26.37;57.27;98644.16;2043255;28;20054;-87
2023/06/24 00:54:34;;;;;;;8.55;3.70;;;;;;;26.35;57.59;98641.66;2044208;28;20414;-87
2023/06/24 00:55:36;;;;;;;9.07;3.50;;;;;;;26.39;57.42;98647.44;2042940;28;20039;-85
2023/06/24 00:56:38;;;;;;;8.98;3.78;;;;;;;26.32;57.27;98644.91;2043977;28;20047;-86
2023/06/24 00:57:40;;;;;;;7.32;3.05;;;;;;;26.39;57.28;98650.16;2042443;28;20047;-87
2023/06/24 00:58:42;;;;;;;9.57;3.28;;;;;;;26.37;57.28;98646.88;2044844;28;20527;-86
2023/06/24 00:59:45;;;;;;;7.03;3.25;;;;;;;26.38;57.23;98643.88;2045716;28;21015;-85
2023/06/24 01:00:46;;;;;;;6.97;2.67;;;;;;;26.37;57.66;98644.16;2044397;28;20065;-86
2023/06/24 01:01:49;;;;;;;7.38;3.22;;;;;;;26.35;57.61;98652.56;2041862;28;20142;-84
2023/06/24 01:02:51;;;;;;;10.23;3.67;;;;;;;26.32;57.64;98641.38;2044216;28;20103;-85
2023/06/24 01:03:54;;;;;;;8.65;3.58;;;;;;;26.35;57.43;98654.44;2045993;28;20150;-85
2023/06/24 01:04:56;;;;;;;10.27;3.55;;;;;;;26.34;57.74;98645.47;2046665;28;20039;-85
2023/06/24 01:05:58;;;;;;;11.95;3.60;;;;;;;26.34;57.83;98650.91;2044372;28;20174;-85
2023/06/24 01:07:00;;;;;;;7.88;3.15;;;;;;;26.30;58.13;98649.78;2045142;28;20482;-85
2023/06/24 01:08:03;;;;;;;9.18;3.80;;;;;;;26.26;58.46;98654.09;2043073;28;20391;-88
2023/06/24 01:09:04;;;;;;;8.98;3.67;;;;;;;26.25;58.02;98652.44;2042033;28;20077;-85
2023/06/24 01:10:08;;;;;;;10.50;3.90;;;;;;;26.29;57.98;98653.56;2042996;28;20051;-85
2023/06/24 01:11:09;;;;;;;9.68;3.42;;;;;;;26.29;58.08;98653.56;2047036;28;20172;-85
2023/06/24 01:12:11;;;;;;;10.85;3.70;;;;;;;26.34;57.93;98656.34;2044378;28;20047;-85
2023/06/24 01:13:11;;;;;;;11.50;2.85;;;;;;;26.33;57.78;98660.16;2041604;28;20051;-84
2023/06/24 01:14:13;;;;;;;15.60;4.43;;;;;;;26.33;57.92;98653.88;2042064;28;20134;-85
2023/06/24 01:15:15;;;;;;;10.38;3.80;;;;;;;26.32;57.92;98649.53;2045879;28;20054;-86
2023/06/24 01:16:25;;;;;;;10.63;3.25;;;;;;;26.35;57.53;98658.00;2044309;28;20082;-86
2023/06/24 01:17:33;;;;;;;8.45;3.58;;;;;;;26.38;57.63;98659.38;2044902;28;20054;-85
2023/06/24 01:18:41;;;;;;;10.80;3.47;;;;;;;26.36;57.54;98653.41;2045524;28;20054;-86
2023/06/24 01:20:05;;;;;;;13.95;3.88;;;;;;;26.31;58.10;98646.00;2043666;28;20073;-85
2023/06/24 01:21:11;;;;;;;8.02;2.67;;;;;;;26.34;58.05;98644.66;2042558;28;20152;-86
2023/06/24 01:22:30;;;;;;;8.27;3.08;;;;;;;26.37;57.45;98644.16;2043912;28;20057;-85
2023/06/24 01:23:59;;;;;;;7.60;3.15;;;;;;;26.34;57.47;98639.22;2044508;28;20045;-86
2023/06/24 01:25:15;;;;;;;7.95;2.78;;;;;;;26.34;57.82;98641.94;2029657;29;20044;-88
2023/06/24 01:26:30;;;;;;;8.75;2.58;;;;;;;26.35;57.54;98641.66;2036611;28;20066;-87
2023/06/24 01:27:57;;;;;;;6.53;2.53;;;;;;;26.32;57.87;98642.19;2044537;28;20043;-85
2023/06/24 01:29:22;;;;;;;8.32;3.22;;;;;;;26.36;57.63;98648.78;2046259;28;20136;-84
2023/06/24 01:30:45;;;;;;;7.22;3.88;;;;;;;26.35;57.44;98658.00;2035466;28;20043;-85
2023/06/24 01:31:52;;;;;;;13.10;4.25;;;;;;;26.38;57.54;98657.47;2041115;28;20805;-86
2023/06/24 01:32:56;;;;;;;10.70;3.38;;;;;;;26.40;57.38;98655.34;2043888;28;20043;-85
2023/06/24 01:34:07;;;;;;;6.65;3.75;;;;;;;26.40;57.42;98654.53;2043506;28;20066;-85
2023/06/24 01:35:14;;;;;;;8.93;2.92;;;;;;;26.41;57.64;98661.59;2045363;28;20119;-86
2023/06/24 01:36:18;;;;;;;8.75;3.38;;;;;;;26.42;57.67;98663.25;2044963;28;20051;-86
2023/06/24 01:37:25;;;;;;;13.00;3.72;;;;;;;26.40;57.37;98659.97;2047943;28;20046;-85
2023/06/24 01:38:35;;;;;;;10.00;3.65;;;;;;;26.43;57.24;98665.69;2042092;28;20047;-85
2023/06/24 01:39:45;;;;;;;10.02;3.05;;;;;;;26.38;57.20;98662.09;2045421;28;20039;-85
2023/06/24 01:40:50;;;;;;;9.98;2.97;;;;;;;26.40;57.59;98663.50;2046194;28;20044;-85
2023/06/24 01:41:59;;;;;;;7.30;3.00;;;;;;;26.46;57.16;98658.94;2044241;28;20904;-85
2023/06/24 01:43:03;;;;;;;10.85;3.42;;;;;;;26.43;57.34;98662.97;2043235;28;20051;-86
2023/06/24 01:44:05;;;;;;;7.25;3.90;;;;;;;26.49;57.38;98669.28;2044131;28;20066;-86
2023/06/24 01:45:11;;;;;;;7.68;3.03;;;;;;;26.49;56.96;98666.56;2045883;28;20119;-86
2023/06/24 01:46:14;;;;;;;5.85;2.75;;;;;;;26.47;57.14;98668.75;2034643;28;20055;-86
2023/06/24 01:47:22;;;;;;;12.43;3.30;;;;;;;26.44;57.45;98671.94;2044713;28;20518;-86
2023/06/24 01:48:27;;;;;;;6.18;2.17;;;;;;;26.44;57.15;98667.38;2042133;28;20146;-86
2023/06/24 01:49:33;;;;;;;8.20;3.33;;;;;;;26.46;57.33;98684.22;2043953;28;20409;-86
2023/06/24 01:50:36;;;;;;;5.70;2.90;;;;;;;26.45;56.98;98674.44;2047427;28;20050;-86
2023/06/24 01:51:41;;;;;;;10.00;3.58;;;;;;;26.47;57.27;98674.19;2044586;28;20045;-86
2023/06/24 01:52:46;;;;;;;8.25;3.50;;;;;;;26.41;57.38;98676.03;2044332;28;20063;-86
2023/06/24 01:53:51;;;;;;;5.85;2.38;;;;;;;26.44;57.14;98678.25;2039952;28;20098;-87
2023/06/24 01:54:56;;;;;;;11.38;3.40;;;;;;;26.42;57.15;98676.84;2041098;28;20043;-86
2023/06/24 01:56:00;;;;;;;10.45;3.03;;;;;;;26.46;57.46;98684.22;2042422;28;20042;-87
2023/06/24 01:57:05;;;;;;;9.13;4.45;;;;;;;26.47;57.48;98687.78;2043804;28;20051;-86
2023/06/24 01:58:08;;;;;;;7.22;2.50;;;;;;;26.45;57.66;98687.22;2041069;28;20043;-87
2023/06/24 01:59:12;;;;;;;9.52;2.70;;;;;;;26.45;57.58;98682.59;2035976;28;20054;-86
2023/06/24 02:00:13;;;;;;;7.97;3.10;;;;;;;26.42;56.99;98682.28;2043757;28;20055;-86
2023/06/24 02:01:16;;;;;;;10.15;3.53;;;;;;;26.46;57.19;98689.66;2044733;28;20061;-85
2023/06/24 02:02:20;;;;;;;6.85;3.25;;;;;;;26.46;57.49;98695.09;2044015;28;20379;-86
2023/06/24 02:03:23;;;;;;;7.28;3.20;;;;;;;26.44;57.34;98686.41;2045946;28;20513;-86
2023/06/24 02:04:25;;;;;;;9.00;3.38;;;;;;;26.38;57.48;98687.38;2046390;28;20054;-85
2023/06/24 02:05:29;;;;;;;7.72;2.83;;;;;;;26.39;57.75;98683.63;2044505;28;20082;-85
2023/06/24 02:06:31;;;;;;;7.10;2.83;;;;;;;26.46;57.51;98686.94;2046512;28;20055;-86
2023/06/24 02:07:34;;;;;;;6.47;3.20;;;;;;;26.40;57.38;98677.09;2043965;28;20047;-86
2023/06/24 02:08:38;;;;;;;7.18;3.15;;;;;;;26.39;57.64;98680.91;2044010;28;20485;-85
2023/06/24 02:09:43;;;;;;;5.68;2.85;;;;;;;26.39;57.78;98680.91;2046475;28;20146;-86
2023/06/24 02:10:45;;;;;;;5.68;2.88;;;;;;;26.36;57.44;98675.16;2042212;28;21879;-87
2023/06/24 02:11:48;;;;;;;7.22;2.95;;;;;;;26.38;57.91;98686.56;2044436;28;20138;-87
2023/06/24 02:12:52;;;;;;;5.45;3.55;;;;;;;26.38;57.57;98679.22;2043518;28;20046;-86
2023/06/24 02:13:55;;;;;;;6.32;3.35;;;;;;;26.42;57.14;98690.44;2041101;28;20055;-86
2023/06/24 02:14:58;;;;;;;10.77;3.30;;;;;;;26.42;57.73;98688.53;2043771;28;20046;-87
2023/06/24 02:16:02;;;;;;;5.25;2.70;;;;;;;26.39;57.20;98683.63;2043358;28;20058;-87
2023/06/24 02:17:06;;;;;;;10.68;3.10;;;;;;;26.42;57.47;98677.66;2039903;28;20949;-86
2023/06/24 02:18:12;;;;;;;7.68;2.53;;;;;;;26.45;57.20;98692.66;2043381;28;20061;-84
2023/06/24 02:19:17;;;;;;;9.48;2.97;;;;;;;26.41;57.46;98683.34;2042072;28;20414;-86
2023/06/24 02:20:21;;;;;;;6.85;2.95;;;;;;;26.42;57.18;98688.53;2045754;28;20051;-86
2023/06/24 02:21:24;;;;;;;7.53;2.80;;;;;;;26.44;57.23;98688.28;2042503;28;20126;-85
2023/06/24 02:22:26;;;;;;;9.88;3.17;;;;;;;26.46;56.95;98692.38;2042619;28;20149;-86
2023/06/24 02:23:29;;;;;;;5.78;2.20;;;;;;;26.48;57.40;98683.97;2042147;28;20051;-85
2023/06/24 02:24:31;;;;;;;7.35;3.08;;;;;;;26.46;57.08;98684.22;2044603;28;20512;-86
2023/06/24 02:25:32;;;;;;;9.07;3.47;;;;;;;26.44;57.26;98680.97;2043909;28;20047;-86
2023/06/24 02:26:37;;;;;;;10.05;4.22;;;;;;;26.44;57.09;98688.28;2042674;28;20051;-86
2023/06/24 02:27:39;;;;;;;7.80;3.20;;;;;;;26.44;57.46;98678.25;2044441;28;20036;-86
2023/06/24 02:28:42;;;;;;;6.97;3.38;;;;;;;26.48;57.44;98681.25;2044414;28;20424;-86
2023/06/24 02:29:46;;;;;;;7.60;3.10;;;;;;;26.43;57.37;98681.19;2043001;28;20067;-86
2023/06/24 02:30:49;;;;;;;12.77;3.70;;;;;;;26.37;57.57;98684.94;2043667;28;20754;-86
2023/06/24 02:31:50;;;;;;;7.32;3.22;;;;;;;26.39;57.78;98680.06;2041909;28;20047;-86
2023/06/24 02:32:52;;;;;;;7.32;2.83;;;;;;;26.38;57.39;98678.41;2043122;28;20095;-86
2023/06/24 02:33:54;;;;;;;6.53;2.95;;;;;;;26.40;57.37;98681.72;2042961;28;20046;-85
2023/06/24 02:34:59;;;;;;;11.27;2.83;;;;;;;26.46;57.59;98681.50;2041647;28;20091;-86
2023/06/24 02:36:00;;;;;;;10.23;3.22;;;;;;;26.42;57.35;98680.38;2043798;28;20054;-84
2023/06/24 02:37:02;;;;;;;7.95;2.75;;;;;;;26.44;57.28;98678.25;2045208;28;20617;-85
2023/06/24 02:38:03;;;;;;;8.00;3.55;;;;;;;26.43;57.60;98675.75;2045037;28;20043;-85
2023/06/24 02:39:05;;;;;;;10.27;3.17;;;;;;;26.44;57.62;98677.41;2042332;28;20077;-86
2023/06/24 02:40:08;;;;;;;8.43;3.70;;;;;;;26.46;57.50;98680.69;2044698;28;20921;-84
2023/06/24 02:41:10;;;;;;;6.43;2.40;;;;;;;26.45;57.38;98677.16;2046259;28;20131;-86
2023/06/24 02:42:11;;;;;;;4.47;2.40;;;;;;;26.47;57.48;98675.00;2042699;28;20084;-86
2023/06/24 02:43:13;;;;;;;8.95;2.80;;;;;;;26.45;57.35;98669.00;2042431;28;20490;-86
2023/06/24 02:44:14;;;;;;;9.18;3.38;;;;;;;26.41;57.47;98667.88;2043440;28;20047;-85
2023/06/24 02:45:16;;;;;;;7.43;3.40;;;;;;;26.46;57.74;98677.97;2044387;28;20513;-86
2023/06/24 02:46:19;;;;;;;6.60;3.00;;;;;;;26.45;57.45;98673.63;2043840;28;20438;-86
2023/06/24 02:47:22;;;;;;;5.05;3.13;;;;;;;26.43;57.76;98676.56;2042914;28;20797;-86
2023/06/24 02:48:24;;;;;;;9.20;3.10;;;;;;;26.45;57.48;98673.63;2042377;28;20078;-85
2023/06/24 02:49:28;;;;;;;8.85;2.75;;;;;;;26.44;57.40;98672.81;2044134;28;20062;-85
2023/06/24 02:50:30;;;;;;;9.27;3.22;;;;;;;26.45;57.56;98677.16;2046337;28;20094;-86
2023/06/24 02:51:33;;;;;;;7.93;3.47;;;;;;;26.43;57.63;98678.47;2044259;28;20087;-87
2023/06/24 02:52:36;;;;;;;6.03;2.65;;;;;;;26.40;57.63;98673.56;2043908;28;20058;-87
2023/06/24 02:53:39;;;;;;;6.78;3.05;;;;;;;26.42;57.61;98676.84;2044285;28;20471;-85
2023/06/24 02:54:41;;;;;;;9.32;3.78;;;;;;;26.42;57.30;98680.38;2045290;28;20463;-87
2023/06/24 02:55:44;;;;;;;9.13;2.78;;;;;;;26.41;57.61;98670.59;2045659;28;20059;-87
2023/06/24 02:56:45;;;;;;;8.02;3.35;;;;;;;26.44;57.58;98685.56;2042721;28;20202;-86
2023/06/24 02:57:48;;;;;;;8.80;3.58;;;;;;;26.44;57.43;98682.84;2044809;28;20051;-84
2023/06/24 02:58:52;;;;;;;8.40;3.08;;;;;;;26.41;57.47;98678.75;2045066;28;20039;-86
2023/06/24 02:59:54;;;;;;;11.18;2.90;;;;;;;26.45;57.61;98685.31;2046820;28;20054;-86
2023/06/24 03:00:55;;;;;;;10.68;3.60;;;;;;;26.43;57.47;98676.56;2045671;28;20052;-84
2023/06/24 03:01:57;;;;;;;9.40;3.38;;;;;;;26.44;57.40;98683.69;2044533;28;20107;-86
2023/06/24 03:02:59;;;;;;;8.18;3.92;;;;;;;26.39;57.51;98685.50;2046288;28;20054;-86
2023/06/24 03:04:01;;;;;;;11.27;4.15;;;;;;;26.39;57.51;98685.50;2041738;28;20059;-85
2023/06/24 03:05:05;;;;;;;10.13;4.00;;;;;;;26.40;57.60;98684.44;2043179;28;20091;-86
2023/06/24 03:06:07;;;;;;;12.43;3.38;;;;;;;26.44;57.79;98683.69;2044702;28;20054;-86
2023/06/24 03:07:10;;;;;;;9.50;3.15;;;;;;;26.46;57.46;98689.66;2044960;28;20079;-86
2023/06/24 03:08:12;;;;;;;8.38;3.08;;;;;;;26.43;57.19;98681.19;2045651;28;20043;-86
2023/06/24 03:09:15;;;;;;;10.15;3.22;;;;;;;26.42;57.46;98680.38;2044120;28;20062;-85
2023/06/24 03:10:17;;;;;;;7.95;3.78;;;;;;;26.41;57.10;98686.91;2045071;28;20047;-85
2023/06/24 03:11:19;;;;;;;6.90;3.17;;;;;;;26.45;57.37;98692.66;2043792;28;20051;-86
2023/06/24 03:12:19;;;;;;;7.97;3.25;;;;;;;26.44;57.22;98694.56;2042934;28;20199;-86
2023/06/24 03:13:21;;;;;;;8.60;3.58;;;;;;;26.39;57.24;98683.63;2045581;28;20059;-86
2023/06/24 03:14:22;;;;;;;6.75;2.88;;;;;;;26.43;57.42;98690.19;2043751;28;20530;-85
2023/06/24 03:15:24;;;;;;;7.65;3.38;;;;;;;26.46;57.38;98689.66;2044062;28;20130;-86
2023/06/24 03:16:25;;;;;;;9.75;3.80;;;;;;;26.43;57.22;98686.63;2042603;28;20458;-86
2023/06/24 03:17:27;;;;;;;8.05;3.95;;;;;;;26.47;57.35;98694.03;2043742;28;20074;-86
2023/06/24 03:18:28;;;;;;;5.20;3.20;;;;;;;26.42;57.32;98687.72;2040882;28;20047;-86
2023/06/24 03:19:30;;;;;;;9.48;3.63;;;;;;;26.39;57.42;98686.34;2045540;28;20130;-87
2023/06/24 03:20:38;;;;;;;6.43;3.40;;;;;;;26.42;57.31;98690.44;2047135;28;20070;-87
2023/06/24 03:21:43;;;;;;;9.65;3.20;;;;;;;26.38;57.51;98689.28;2044882;28;20607;-87
2023/06/24 03:22:44;;;;;;;9.13;3.40;;;;;;;26.45;57.20;98698.09;2045156;28;20118;-86
2023/06/24 03:23:46;;;;;;;8.77;3.20;;;;;;;26.42;57.07;98685.81;2044785;28;20122;-86
2023/06/24 03:24:47;;;;;;;10.73;4.07;;;;;;;26.45;57.31;98701.63;2043193;28;20047;-86
2023/06/24 03:25:49;;;;;;;13.48;4.93;;;;;;;26.42;57.18;98702.13;2044390;28;20067;-87
2023/06/24 03:26:55;;;;;;;7.53;3.67;;;;;;;26.40;57.05;98698.03;2038367;28;21465;-87
2023/06/24 03:27:57;;;;;;;6.72;3.00;;;;;;;26.44;57.32;98705.44;2042238;28;20522;-87
2023/06/24 03:28:58;;;;;;;9.95;2.97;;;;;;;26.41;57.23;98694.22;2045022;28;20051;-85
2023/06/24 03:30:00;;;;;;;7.13;3.35;;;;;;;26.43;57.29;98706.50;2042391;28;20130;-86
2023/06/24 03:31:01;;;;;;;12.40;4.10;;;;;;;26.43;57.19;98706.50;2042555;28;20082;-84
2023/06/24 03:32:03;;;;;;;6.25;3.75;;;;;;;26.46;57.20;98707.88;2040806;28;20043;-86
2023/06/24 03:33:05;;;;;;;10.73;4.70;;;;;;;26.43;57.50;98701.06;2042795;28;20054;-85
2023/06/24 03:34:07;;;;;;;9.80;4.20;;;;;;;26.40;57.34;98701.56;2043037;28;20077;-86
2023/06/24 03:35:08;;;;;;;11.07;4.20;;;;;;;26.37;57.63;98698.53;2041896;28;20051;-88
2023/06/24 03:36:12;;;;;;;10.88;4.32;;;;;;;26.43;57.39;98705.69;2042077;28;20783;-85
2023/06/24 03:37:13;;;;;;;5.50;2.95;;;;;;;26.43;57.41;98701.06;2045597;28;20051;-85
2023/06/24 03:38:14;;;;;;;11.93;3.78;;;;;;;26.39;57.48;98697.22;2044299;28;20062;-85
2023/06/24 03:39:16;;;;;;;7.25;3.97;;;;;;;26.42;57.63;98709.47;2044386;28;20174;-86
2023/06/24 03:40:17;;;;;;;7.47;3.63;;;;;;;26.42;57.41;98709.47;2043406;28;20051;-86
2023/06/24 03:41:19;;;;;;;10.00;3.90;;;;;;;26.40;57.22;98703.47;2043028;28;20353;-86
2023/06/24 03:42:21;;;;;;;8.02;3.67;;;;;;;26.38;57.43;98709.16;2042896;28;20058;-87
2023/06/24 03:43:22;;;;;;;11.52;3.15;;;;;;;26.43;57.46;98713.84;2043864;28;20051;-85
2023/06/24 03:44:23;;;;;;;17.27;5.07;;;;;;;26.42;57.48;98701.31;2038293;28;20591;-85
2023/06/24 03:45:24;;;;;;;9.32;3.92;;;;;;;26.43;57.22;98720.09;2043610;28;20051;-86
2023/06/24 03:46:26;;;;;;;10.50;3.92;;;;;;;26.41;57.26;98710.53;2042530;28;20058;-85
2023/06/24 03:47:27;;;;;;;10.63;5.28;;;;;;;26.38;57.41;98711.88;2043569;28;20050;-85
2023/06/24 03:48:29;;;;;;;8.32;4.30;;;;;;;26.41;57.38;98715.97;2043694;28;20053;-86
2023/06/24 03:49:30;;;;;;;10.05;4.75;;;;;;;26.42;57.34;98723.91;2045451;28;20043;-86
2023/06/24 03:50:32;;;;;;;12.88;3.65;;;;;;;26.39;57.20;98707.28;2043845;28;20180;-87
2023/06/24 03:51:34;;;;;;;14.43;5.05;;;;;;;26.44;57.33;98715.47;2044597;28;20051;-87
2023/06/24 03:52:36;;;;;;;12.63;5.13;;;;;;;26.44;57.46;98726.34;2043780;28;20043;-85
2023/06/24 03:53:37;;;;;;;13.40;4.38;;;;;;;26.41;56.97;98716.81;2043240;28;20043;-86
2023/06/24 03:54:39;;;;;;;14.45;4.35;;;;;;;26.36;57.43;98708.59;2047401;28;20452;-86
2023/06/24 03:55:40;;;;;;;10.48;4.00;;;;;;;26.41;57.36;98722.25;2043993;28;20051;-86
2023/06/24 03:56:43;;;;;;;9.77;4.13;;;;;;;26.43;57.27;98717.38;2044086;28;20067;-86
2023/06/24 03:57:44;;;;;;;11.40;4.35;;;;;;;26.45;57.21;98726.09;2044277;28;20126;-86
2023/06/24 03:58:46;;;;;;;15.00;4.53;;;;;;;26.41;57.36;98721.41;2045809;28;20110;-86
2023/06/24 03:59:46;;;;;;;11.18;4.72;;;;;;;26.41;57.18;98719.53;2043586;28;20051;-86
2023/06/24 04:00:49;;;;;;;10.88;3.75;;;;;;;26.44;57.11;98731.78;2043020;28;20075;-85
2023/06/24 04:01:51;;;;;;;10.75;4.63;;;;;;;26.41;57.21;98722.25;2044183;28;20050;-85
2023/06/24 04:02:53;;;;;;;11.10;4.03;;;;;;;26.38;57.50;98724.66;2039792;28;20046;-86
2023/06/24 04:03:54;;;;;;;11.27;4.18;;;;;;;26.43;57.07;98735.59;2046742;28;20127;-87
2023/06/24 04:04:56;;;;;;;13.20;4.88;;;;;;;26.41;57.21;98722.25;2045666;28;20189;-86
2023/06/24 04:05:57;;;;;;;8.10;4.00;;;;;;;26.40;57.18;98722.50;2043959;28;20047;-85
2023/06/24 04:07:00;;;;;;;10.80;3.67;;;;;;;26.43;57.23;98725.53;2045568;28;20047;-84
2023/06/24 04:08:05;;;;;;;11.70;3.90;;;;;;;26.40;56.96;98720.59;2045740;28;20498;-85
2023/06/24 04:09:09;;;;;;;8.05;4.38;;;;;;;26.42;57.40;98729.34;2045375;28;20643;-86
2023/06/24 04:10:10;;;;;;;8.35;3.25;;;;;;;26.43;57.00;98722.81;2044526;28;20134;-84
2023/06/24 04:11:12;;;;;;;7.10;3.72;;;;;;;26.39;57.17;98718.16;2045392;28;20054;-85
2023/06/24 04:12:13;;;;;;;7.13;3.95;;;;;;;26.42;57.01;98718.47;2047176;28;20692;-86
2023/06/24 04:13:15;;;;;;;10.52;4.35;;;;;;;26.44;56.73;98719.03;2046530;28;20071;-86
2023/06/24 04:14:15;;;;;;;8.27;3.30;;;;;;;26.43;57.22;98717.38;2046874;28;20047;-86
2023/06/24 04:15:17;;;;;;;8.10;3.70;;;;;;;26.44;56.87;98718.19;2047252;28;20047;-85
2023/06/24 04:16:18;;;;;;;7.68;3.22;;;;;;;26.42;56.84;98715.75;2046463;28;20080;-86
2023/06/24 04:17:20;;;;;;;10.48;4.05;;;;;;;26.40;57.00;98720.59;2045854;28;20147;-85
2023/06/24 04:18:21;;;;;;;9.30;4.32;;;;;;;26.44;56.87;98719.03;2045356;28;20165;-85
2023/06/24 04:19:23;;;;;;;10.07;4.05;;;;;;;26.42;56.86;98723.91;2045880;28;20059;-85
2023/06/24 04:20:24;;;;;;;10.05;3.38;;;;;;;26.41;57.32;98722.25;2046714;28;20047;-86
2023/06/24 04:21:26;;;;;;;6.85;4.07;;;;;;;26.38;56.99;98722.75;2043829;28;20079;-86
2023/06/24 04:22:29;;;;;;;7.60;3.33;;;;;;;26.44;56.79;98726.34;2047227;28;20122;-86
2023/06/24 04:23:31;;;;;;;6.78;3.35;;;;;;;26.42;56.88;98723.91;2044936;28;20414;-88
2023/06/24 04:24:32;;;;;;;12.10;3.75;;;;;;;26.41;56.56;98719.53;2044417;28;20066;-85
2023/06/24 04:25:34;;;;;;;8.35;3.70;;;;;;;26.45;56.66;98725.28;2044166;28;20577;-87
2023/06/24 04:26:35;;;;;;;10.95;4.03;;;;;;;26.45;56.75;98731.53;2048404;28;20054;-85
2023/06/24 04:27:40;;;;;;;9.43;4.13;;;;;;;26.40;56.79;98734.19;2045184;28;20130;-85
2023/06/24 04:28:41;;;;;;;9.20;3.65;;;;;;;26.39;56.97;98734.47;2044130;28;20094;-85
2023/06/24 04:29:43;;;;;;;8.48;3.97;;;;;;;26.41;57.09;98735.88;2047678;28;20101;-85
2023/06/24 04:30:44;;;;;;;6.40;3.17;;;;;;;26.37;56.93;98731.97;2047271;28;20627;-86
2023/06/24 04:31:45;;;;;;;8.60;4.15;;;;;;;26.34;56.75;98721.63;2044157;28;20047;-86
2023/06/24 04:32:46;;;;;;;5.85;3.15;;;;;;;26.35;56.84;98731.41;2046887;28;20539;-85
2023/06/24 04:33:48;;;;;;;6.68;3.35;;;;;;;26.28;57.25;98723.44;2046304;28;20117;-85
2023/06/24 04:34:49;;;;;;;5.35;3.20;;;;;;;26.37;56.88;98731.97;2046673;28;20126;-84
2023/06/24 04:35:52;;;;;;;7.75;3.65;;;;;;;26.42;56.69;98733.97;2046998;28;20043;-85
2023/06/24 04:36:54;;;;;;;10.25;4.68;;;;;;;26.31;56.93;98722.13;2047403;28;20051;-86
2023/06/24 04:37:56;;;;;;;7.13;3.60;;;;;;;26.29;56.96;98718.81;2045925;28;20418;-85
2023/06/24 04:38:58;;;;;;;10.38;4.03;;;;;;;26.29;56.96;98726.97;2047538;28;20074;-86
2023/06/24 04:39:59;;;;;;;8.70;4.75;;;;;;;26.35;56.69;98727.88;2045337;28;20540;-86
2023/06/24 04:41:01;;;;;;;8.05;4.25;;;;;;;26.31;56.91;98727.56;2050002;28;20077;-85
2023/06/24 04:42:02;;;;;;;5.82;4.20;;;;;;;26.35;56.94;98727.88;2043299;28;20054;-86
2023/06/24 04:43:04;;;;;;;10.30;4.25;;;;;;;26.34;56.38;98732.50;2045988;28;20043;-85
2023/06/24 04:44:05;;;;;;;7.10;4.25;;;;;;;26.30;56.88;98725.94;2046235;28;20050;-85
2023/06/24 04:45:08;;;;;;;8.68;3.45;;;;;;;26.33;56.67;98735.44;2045457;28;20134;-87
2023/06/24 04:46:09;;;;;;;9.80;4.00;;;;;;;26.33;56.39;98730.84;2046128;28;20482;-85
2023/06/24 04:47:13;;;;;;;6.78;3.92;;;;;;;26.35;56.38;98736.84;2046526;28;20478;-85
2023/06/24 04:48:14;;;;;;;11.05;3.95;;;;;;;26.35;56.31;98734.13;2045034;28;20051;-87
2023/06/24 04:49:16;;;;;;;6.30;3.38;;;;;;;26.36;56.41;98735.78;2041414;28;20594;-87
2023/06/24 04:50:17;;;;;;;4.97;3.20;;;;;;;26.30;56.61;98731.38;2045295;28;20063;-86
2023/06/24 04:51:19;;;;;;;5.75;3.63;;;;;;;26.29;56.39;98735.97;2046880;28;20494;-85
2023/06/24 04:52:19;;;;;;;6.70;3.20;;;;;;;26.34;56.62;98742.56;2046651;28;20177;-86
2023/06/24 04:53:23;;;;;;;6.30;3.08;;;;;;;26.31;56.14;98735.72;2044164;28;20943;-86
2023/06/24 04:54:24;;;;;;;5.75;3.20;;;;;;;26.31;56.41;98738.44;2046529;28;20047;-87
2023/06/24 04:55:26;;;;;;;5.25;3.47;;;;;;;26.35;56.16;98739.56;2042961;28;20696;-86
2023/06/24 04:56:28;;;;;;;6.60;3.60;;;;;;;26.38;56.29;98746.41;2044850;28;20141;-85